sensor_id;sensor_type;location;lat;lon;timestamp;pressure;altitude;pressure_sealevel;temperature;humidity
17855;BME280;9053;53.358;6.382;2023-11-18T00:00:58;102335.88;;;5.32;97.06
17855;BME280;9053;53.358;6.382;2023-11-18T00:03:30;102334.03;;;5.31;96.95
17855;BME280;9053;53.358;6.382;2023-11-18T00:06:00;102329.72;;;5.31;97.00
17855;BME280;9053;53.358;6.382;2023-11-18T00:08:30;102331.34;;;5.29;96.97
17855;BME280;9053;53.358;6.382;2023-11-18T00:11:00;102325.97;;;5.28;97.02
17855;BME280;9053;53.358;6.382;2023-11-18T00:13:30;102334.59;;;5.27;97.03
17855;BME280;9053;53.358;6.382;2023-11-18T00:16:04;102337.22;;;5.27;97.07
17855;BME280;9053;53.358;6.382;2023-11-18T00:18:35;102330.97;;;5.25;97.10
17855;BME280;9053;53.358;6.382;2023-11-18T00:21:05;102323.91;;;5.24;96.94
17855;BME280;9053;53.358;6.382;2023-11-18T00:23:35;102325.63;;;5.23;97.01
17855;BME280;9053;53.358;6.382;2023-11-18T00:26:05;102322.88;;;5.21;97.06
17855;BME280;9053;53.358;6.382;2023-11-18T00:28:37;102336.59;;;5.19;97.21
17855;BME280;9053;53.358;6.382;2023-11-18T00:31:09;102329.41;;;5.16;97.08
17855;BME280;9053;53.358;6.382;2023-11-18T00:33:39;102331.03;;;5.14;97.21
17855;BME280;9053;53.358;6.382;2023-11-18T00:36:10;102326.72;;;5.15;97.08
17855;BME280;9053;53.358;6.382;2023-11-18T00:38:40;102325.81;;;5.14;97.24
17855;BME280;9053;53.358;6.382;2023-11-18T00:41:10;102323.06;;;5.13;97.11
17855;BME280;9053;53.358;6.382;2023-11-18T00:43:41;102316.94;;;5.12;97.16
17855;BME280;9053;53.358;6.382;2023-11-18T00:46:13;102321.94;;;5.09;97.08
17855;BME280;9053;53.358;6.382;2023-11-18T00:48:44;102322.59;;;5.07;97.02
17855;BME280;9053;53.358;6.382;2023-11-18T00:51:15;102317.25;;;5.05;96.99
17855;BME280;9053;53.358;6.382;2023-11-18T00:53:45;102321.56;;;5.05;97.00
17855;BME280;9053;53.358;6.382;2023-11-18T00:56:16;102323.13;;;5.03;96.96
17855;BME280;9053;53.358;6.382;2023-11-18T00:58:45;102317.00;;;5.02;97.03
17855;BME280;9053;53.358;6.382;2023-11-18T01:01:22;102321.44;;;5.03;97.04
17855;BME280;9053;53.358;6.382;2023-11-18T01:03:52;102319.63;;;5.02;96.98
17855;BME280;9053;53.358;6.382;2023-11-18T01:06:26;102322.22;;;5.02;97.11
17855;BME280;9053;53.358;6.382;2023-11-18T01:08:56;102328.19;;;5.01;97.12
17855;BME280;9053;53.358;6.382;2023-11-18T01:11:26;102324.69;;;5.01;97.15
17855;BME280;9053;53.358;6.382;2023-11-18T01:13:56;102324.59;;;4.99;97.09
17855;BME280;9053;53.358;6.382;2023-11-18T01:16:29;102330.81;;;5.01;97.11
17855;BME280;9053;53.358;6.382;2023-11-18T01:19:00;102327.97;;;4.98;97.14
17855;BME280;9053;53.358;6.382;2023-11-18T01:21:30;102315.84;;;4.98;97.19
17855;BME280;9053;53.358;6.382;2023-11-18T01:24:00;102310.53;;;4.97;97.15
17855;BME280;9053;53.358;6.382;2023-11-18T01:26:30;102307.78;;;4.95;97.27
17855;BME280;9053;53.358;6.382;2023-11-18T01:29:00;102311.19;;;4.94;97.23
17855;BME280;9053;53.358;6.382;2023-11-18T01:31:33;102316.25;;;4.93;97.28
17855;BME280;9053;53.358;6.382;2023-11-18T01:34:18;102316.25;;;4.93;97.49
17855;BME280;9053;53.358;6.382;2023-11-18T01:36:49;102308.34;;;4.91;97.56
17855;BME280;9053;53.358;6.382;2023-11-18T01:39:20;102311.84;;;4.92;97.67
17855;BME280;9053;53.358;6.382;2023-11-18T01:41:51;102306.63;;;4.92;97.78
17855;BME280;9053;53.358;6.382;2023-11-18T01:44:21;102304.13;;;4.93;97.84
17855;BME280;9053;53.358;6.382;2023-11-18T01:46:54;102309.34;;;4.93;97.89
17855;BME280;9053;53.358;6.382;2023-11-18T01:49:24;102310.94;;;4.91;97.79
17855;BME280;9053;53.358;6.382;2023-11-18T01:51:56;102303.88;;;4.90;97.86
17855;BME280;9053;53.358;6.382;2023-11-18T01:54:29;102308.22;;;4.90;97.97
17855;BME280;9053;53.358;6.382;2023-11-18T01:57:00;102308.06;;;4.88;97.72
17855;BME280;9053;53.358;6.382;2023-11-18T01:59:33;102303.50;;;4.86;97.89
17855;BME280;9053;53.358;6.382;2023-11-18T02:02:08;102308.63;;;4.84;98.02
17855;BME280;9053;53.358;6.382;2023-11-18T02:04:38;102304.31;;;4.85;98.15
17855;BME280;9053;53.358;6.382;2023-11-18T02:07:09;102308.88;;;4.87;98.39
17855;BME280;9053;53.358;6.382;2023-11-18T02:09:42;102307.16;;;4.88;98.49
17855;BME280;9053;53.358;6.382;2023-11-18T02:12:19;102313.41;;;4.90;98.65
17855;BME280;9053;53.358;6.382;2023-11-18T02:14:51;102316.25;;;4.93;98.93
17855;BME280;9053;53.358;6.382;2023-11-18T02:17:27;102310.28;;;4.94;98.98
17855;BME280;9053;53.358;6.382;2023-11-18T02:19:58;102318.19;;;4.95;99.01
17855;BME280;9053;53.358;6.382;2023-11-18T02:22:33;102316.50;;;4.96;99.20
17855;BME280;9053;53.358;6.382;2023-11-18T02:25:05;102307.91;;;4.97;99.01
17855;BME280;9053;53.358;6.382;2023-11-18T02:27:40;102310.53;;;4.97;99.14
17855;BME280;9053;53.358;6.382;2023-11-18T02:30:12;102309.63;;;4.96;99.19
17855;BME280;9053;53.358;6.382;2023-11-18T02:32:48;102316.41;;;4.94;99.27
17855;BME280;9053;53.358;6.382;2023-11-18T02:35:24;102305.97;;;4.94;99.41
17855;BME280;9053;53.358;6.382;2023-11-18T02:37:58;102307.09;;;4.98;99.34
17855;BME280;9053;53.358;6.382;2023-11-18T02:40:35;102302.56;;;4.95;99.45
17855;BME280;9053;53.358;6.382;2023-11-18T02:43:09;102299.84;;;4.94;99.42
17855;BME280;9053;53.358;6.382;2023-11-18T02:45:41;102291.75;;;4.91;99.51
17855;BME280;9053;53.358;6.382;2023-11-18T02:48:13;102294.38;;;4.91;99.52
17855;BME280;9053;53.358;6.382;2023-11-18T02:50:45;102297.78;;;4.90;99.69
17855;BME280;9053;53.358;6.382;2023-11-18T02:53:16;102290.09;;;4.91;99.69
17855;BME280;9053;53.358;6.382;2023-11-18T02:55:46;102282.13;;;4.90;99.70
17855;BME280;9053;53.358;6.382;2023-11-18T02:58:21;102289.16;;;4.91;99.79
17855;BME280;9053;53.358;6.382;2023-11-18T03:00:51;102278.72;;;4.91;99.93
17855;BME280;9053;53.358;6.382;2023-11-18T03:03:22;102277.16;;;4.93;100.00
17855;BME280;9053;53.358;6.382;2023-11-18T03:05:52;102266.84;;;4.94;100.00
17855;BME280;9053;53.358;6.382;2023-11-18T03:08:22;102259.13;;;4.96;100.00
17855;BME280;9053;53.358;6.382;2023-11-18T03:10:55;102252.34;;;4.98;100.00
17855;BME280;9053;53.358;6.382;2023-11-18T03:13:28;102250.53;;;4.97;100.00
17855;BME280;9053;53.358;6.382;2023-11-18T03:15:59;102255.75;;;4.97;100.00
17855;BME280;9053;53.358;6.382;2023-11-18T03:18:31;102271.50;;;4.98;100.00
17855;BME280;9053;53.358;6.382;2023-11-18T03:21:01;102266.56;;;5.02;100.00
17855;BME280;9053;53.358;6.382;2023-11-18T03:23:34;102253.63;;;5.03;100.00
17855;BME280;9053;53.358;6.382;2023-11-18T03:26:05;102265.31;;;5.08;100.00
17855;BME280;9053;53.358;6.382;2023-11-18T03:28:38;102266.34;;;5.10;100.00
17855;BME280;9053;53.358;6.382;2023-11-18T03:31:08;102269.09;;;5.12;100.00
17855;BME280;9053;53.358;6.382;2023-11-18T03:33:39;102254.47;;;5.14;100.00
17855;BME280;9053;53.358;6.382;2023-11-18T03:36:10;102257.31;;;5.17;100.00
17855;BME280;9053;53.358;6.382;2023-11-18T03:38:44;102269.81;;;5.21;100.00
17855;BME280;9053;53.358;6.382;2023-11-18T03:41:15;102265.47;;;5.21;100.00
17855;BME280;9053;53.358;6.382;2023-11-18T03:43:48;102271.50;;;5.20;100.00
17855;BME280;9053;53.358;6.382;2023-11-18T03:46:19;102272.41;;;5.21;100.00
17855;BME280;9053;53.358;6.382;2023-11-18T03:48:49;102264.72;;;5.23;100.00
17855;BME280;9053;53.358;6.382;2023-11-18T03:51:20;102263.69;;;5.20;100.00
17855;BME280;9053;53.358;6.382;2023-11-18T03:53:50;102242.16;;;5.23;100.00
17855;BME280;9053;53.358;6.382;2023-11-18T03:56:20;102219.84;;;5.27;100.00
17855;BME280;9053;53.358;6.382;2023-11-18T03:58:53;102212.22;;;5.30;100.00
17855;BME280;9053;53.358;6.382;2023-11-18T04:01:24;102207.03;;;5.30;100.00
17855;BME280;9053;53.358;6.382;2023-11-18T04:03:55;102208.06;;;5.32;100.00
17855;BME280;9053;53.358;6.382;2023-11-18T04:06:26;102203.06;;;5.35;100.00
17855;BME280;9053;53.358;6.382;2023-11-18T04:08:55;102194.56;;;5.37;100.00
17855;BME280;9053;53.358;6.382;2023-11-18T04:11:26;102199.78;;;5.37;100.00
17855;BME280;9053;53.358;6.382;2023-11-18T04:13:58;102201.56;;;5.38;100.00
17855;BME280;9053;53.358;6.382;2023-11-18T04:16:30;102192.97;;;5.39;100.00
17855;BME280;9053;53.358;6.382;2023-11-18T04:19:01;102193.06;;;5.41;100.00
17855;BME280;9053;53.358;6.382;2023-11-18T04:21:31;102186.28;;;5.43;100.00
17855;BME280;9053;53.358;6.382;2023-11-18T04:24:02;102189.91;;;5.45;100.00
17855;BME280;9053;53.358;6.382;2023-11-18T04:26:32;102183.34;;;5.50;100.00
17855;BME280;9053;53.358;6.382;2023-11-18T04:29:04;102188.44;;;5.49;100.00
17855;BME280;9053;53.358;6.382;2023-11-18T04:31:35;102185.97;;;5.50;100.00
17855;BME280;9053;53.358;6.382;2023-11-18T04:34:05;102188.66;;;5.52;100.00
17855;BME280;9053;53.358;6.382;2023-11-18T04:36:35;102182.66;;;5.53;100.00
17855;BME280;9053;53.358;6.382;2023-11-18T04:39:05;102180.16;;;5.54;100.00
17855;BME280;9053;53.358;6.382;2023-11-18T04:41:38;102170.88;;;5.58;100.00
17855;BME280;9053;53.358;6.382;2023-11-18T04:44:12;102176.31;;;5.61;100.00
17855;BME280;9053;53.358;6.382;2023-11-18T04:46:43;102183.38;;;5.62;100.00
17855;BME280;9053;53.358;6.382;2023-11-18T04:49:13;102170.31;;;5.62;100.00
17855;BME280;9053;53.358;6.382;2023-11-18T04:51:43;102171.44;;;5.66;100.00
17855;BME280;9053;53.358;6.382;2023-11-18T04:54:13;102165.41;;;5.67;100.00
17855;BME280;9053;53.358;6.382;2023-11-18T04:56:43;102165.56;;;5.68;100.00
17855;BME280;9053;53.358;6.382;2023-11-18T04:59:17;102159.66;;;5.71;100.00
17855;BME280;9053;53.358;6.382;2023-11-18T05:01:48;102157.16;;;5.72;100.00
17855;BME280;9053;53.358;6.382;2023-11-18T05:04:20;102161.72;;;5.75;100.00
17855;BME280;9053;53.358;6.382;2023-11-18T05:06:50;102161.94;;;5.78;100.00
17855;BME280;9053;53.358;6.382;2023-11-18T05:09:20;102159.53;;;5.81;100.00
17855;BME280;9053;53.358;6.382;2023-11-18T05:11:51;102162.38;;;5.84;100.00
17855;BME280;9053;53.358;6.382;2023-11-18T05:14:24;102164.41;;;5.88;100.00
17855;BME280;9053;53.358;6.382;2023-11-18T05:16:55;102153.28;;;5.91;100.00
17855;BME280;9053;53.358;6.382;2023-11-18T05:19:25;102154.19;;;5.91;100.00
17855;BME280;9053;53.358;6.382;2023-11-18T05:21:56;102157.63;;;5.90;100.00
17855;BME280;9053;53.358;6.382;2023-11-18T05:24:27;102150.00;;;5.93;100.00
17855;BME280;9053;53.358;6.382;2023-11-18T05:26:57;102146.50;;;5.93;100.00
17855;BME280;9053;53.358;6.382;2023-11-18T05:29:31;102145.59;;;5.92;100.00
17855;BME280;9053;53.358;6.382;2023-11-18T05:32:01;102147.25;;;5.92;100.00
17855;BME280;9053;53.358;6.382;2023-11-18T05:34:31;102150.16;;;5.95;100.00
17855;BME280;9053;53.358;6.382;2023-11-18T05:37:02;102158.22;;;5.98;100.00
17855;BME280;9053;53.358;6.382;2023-11-18T05:39:32;102156.72;;;6.01;100.00
17855;BME280;9053;53.358;6.382;2023-11-18T05:42:09;102149.00;;;6.03;100.00
17855;BME280;9053;53.358;6.382;2023-11-18T05:44:43;102149.09;;;6.04;100.00
17855;BME280;9053;53.358;6.382;2023-11-18T05:47:13;102147.41;;;6.05;100.00
17855;BME280;9053;53.358;6.382;2023-11-18T05:49:43;102144.81;;;6.05;100.00
17855;BME280;9053;53.358;6.382;2023-11-18T05:52:13;102144.81;;;6.05;100.00
17855;BME280;9053;53.358;6.382;2023-11-18T05:54:43;102137.06;;;6.06;100.00
17855;BME280;9053;53.358;6.382;2023-11-18T05:57:15;102131.16;;;6.09;100.00
17855;BME280;9053;53.358;6.382;2023-11-18T05:59:47;102130.47;;;6.12;100.00
17855;BME280;9053;53.358;6.382;2023-11-18T06:02:17;102141.72;;;6.11;100.00
17855;BME280;9053;53.358;6.382;2023-11-18T06:04:48;102140.00;;;6.11;100.00
17855;BME280;9053;53.358;6.382;2023-11-18T06:07:19;102131.50;;;6.14;100.00
17855;BME280;9053;53.358;6.382;2023-11-18T06:09:50;102131.38;;;6.12;100.00
17855;BME280;9053;53.358;6.382;2023-11-18T06:12:20;102119.25;;;6.13;100.00
17855;BME280;9053;53.358;6.382;2023-11-18T06:14:52;102125.72;;;6.18;100.00
17855;BME280;9053;53.358;6.382;2023-11-18T06:17:22;102118.84;;;6.20;100.00
17855;BME280;9053;53.358;6.382;2023-11-18T06:19:52;102121.59;;;6.21;100.00
17855;BME280;9053;53.358;6.382;2023-11-18T06:22:22;102106.94;;;6.23;100.00
17855;BME280;9053;53.358;6.382;2023-11-18T06:24:52;102110.44;;;6.24;100.00
17855;BME280;9053;53.358;6.382;2023-11-18T06:27:22;102103.31;;;6.21;100.00
17855;BME280;9053;53.358;6.382;2023-11-18T06:29:55;102101.72;;;6.23;100.00
17855;BME280;9053;53.358;6.382;2023-11-18T06:32:25;102111.25;;;6.23;100.00
17855;BME280;9053;53.358;6.382;2023-11-18T06:34:55;102116.56;;;6.24;100.00
17855;BME280;9053;53.358;6.382;2023-11-18T06:37:25;102110.78;;;6.28;100.00
17855;BME280;9053;53.358;6.382;2023-11-18T06:40:02;102107.50;;;6.31;100.00
17855;BME280;9053;53.358;6.382;2023-11-18T06:42:43;102097.25;;;6.34;100.00
17855;BME280;9053;53.358;6.382;2023-11-18T06:45:16;102098.47;;;6.39;100.00
17855;BME280;9053;53.358;6.382;2023-11-18T06:47:49;102101.22;;;6.41;100.00
17855;BME280;9053;53.358;6.382;2023-11-18T06:50:19;102102.00;;;6.40;100.00
17855;BME280;9053;53.358;6.382;2023-11-18T06:52:51;102107.34;;;6.41;100.00
17855;BME280;9053;53.358;6.382;2023-11-18T06:55:21;102111.88;;;6.44;100.00
17855;BME280;9053;53.358;6.382;2023-11-18T06:57:53;102113.78;;;6.46;100.00
17855;BME280;9053;53.358;6.382;2023-11-18T07:00:26;102118.22;;;6.47;100.00
17855;BME280;9053;53.358;6.382;2023-11-18T07:02:56;102122.53;;;6.47;100.00
17855;BME280;9053;53.358;6.382;2023-11-18T07:05:28;102123.69;;;6.50;100.00
17855;BME280;9053;53.358;6.382;2023-11-18T07:07:58;102129.59;;;6.48;100.00
17855;BME280;9053;53.358;6.382;2023-11-18T07:10:30;102125.16;;;6.47;100.00
17855;BME280;9053;53.358;6.382;2023-11-18T07:13:00;102140.25;;;6.51;100.00
17855;BME280;9053;53.358;6.382;2023-11-18T07:15:32;102139.56;;;6.54;100.00
17855;BME280;9053;53.358;6.382;2023-11-18T07:18:03;102133.53;;;6.55;100.00
17855;BME280;9053;53.358;6.382;2023-11-18T07:20:30;102134.56;;;6.57;100.00
17855;BME280;9053;53.358;6.382;2023-11-18T07:23:00;102124.31;;;6.60;100.00
17855;BME280;9053;53.358;6.382;2023-11-18T07:25:30;102132.97;;;6.59;100.00
17855;BME280;9053;53.358;6.382;2023-11-18T07:28:01;102126.13;;;6.61;100.00
17855;BME280;9053;53.358;6.382;2023-11-18T07:30:34;102127.16;;;6.63;100.00
17855;BME280;9053;53.358;6.382;2023-11-18T07:33:04;102120.09;;;6.62;100.00
17855;BME280;9053;53.358;6.382;2023-11-18T07:35:35;102119.06;;;6.60;100.00
17855;BME280;9053;53.358;6.382;2023-11-18T07:38:05;102110.34;;;6.59;100.00
17855;BME280;9053;53.358;6.382;2023-11-18T07:40:36;102110.44;;;6.61;100.00
17855;BME280;9053;53.358;6.382;2023-11-18T07:43:09;102110.44;;;6.61;100.00
17855;BME280;9053;53.358;6.382;2023-11-18T07:45:42;102135.78;;;6.62;100.00
17855;BME280;9053;53.358;6.382;2023-11-18T07:48:14;102127.25;;;6.64;100.00
17855;BME280;9053;53.358;6.382;2023-11-18T07:50:44;102117.94;;;6.68;100.00
17855;BME280;9053;53.358;6.382;2023-11-18T07:53:14;102116.31;;;6.70;100.00
17855;BME280;9053;53.358;6.382;2023-11-18T07:55:44;102112.00;;;6.70;100.00
17855;BME280;9053;53.358;6.382;2023-11-18T07:58:15;102117.44;;;6.74;100.00
17855;BME280;9053;53.358;6.382;2023-11-18T08:00:53;102118.56;;;6.77;100.00
17855;BME280;9053;53.358;6.382;2023-11-18T08:03:23;102115.34;;;6.81;100.00
17855;BME280;9053;53.358;6.382;2023-11-18T08:05:54;102117.16;;;6.82;100.00
17855;BME280;9053;53.358;6.382;2023-11-18T08:08:24;102128.75;;;6.86;100.00
17855;BME280;9053;53.358;6.382;2023-11-18T08:10:55;102128.84;;;6.87;100.00
17855;BME280;9053;53.358;6.382;2023-11-18T08:13:25;102118.38;;;6.87;100.00
17855;BME280;9053;53.358;6.382;2023-11-18T08:15:58;102107.34;;;6.91;100.00
17855;BME280;9053;53.358;6.382;2023-11-18T08:18:28;102100.50;;;6.93;100.00
17855;BME280;9053;53.358;6.382;2023-11-18T08:20:58;102093.78;;;6.97;100.00
17855;BME280;9053;53.358;6.382;2023-11-18T08:23:30;102096.59;;;7.00;100.00
17855;BME280;9053;53.358;6.382;2023-11-18T08:26:00;102090.47;;;7.00;100.00
17855;BME280;9053;53.358;6.382;2023-11-18T08:28:30;102082.72;;;7.01;100.00
17855;BME280;9053;53.358;6.382;2023-11-18T08:31:03;102077.50;;;7.01;100.00
17855;BME280;9053;53.358;6.382;2023-11-18T08:33:34;102074.06;;;7.02;100.00
17855;BME280;9053;53.358;6.382;2023-11-18T08:36:04;102065.31;;;7.02;100.00
17855;BME280;9053;53.358;6.382;2023-11-18T08:38:34;102054.03;;;7.03;100.00
17855;BME280;9053;53.358;6.382;2023-11-18T08:41:05;102055.88;;;7.04;100.00
17855;BME280;9053;53.358;6.382;2023-11-18T08:43:36;102055.06;;;7.05;100.00
17855;BME280;9053;53.358;6.382;2023-11-18T08:46:10;102038.66;;;7.07;100.00
17855;BME280;9053;53.358;6.382;2023-11-18T08:48:40;102033.53;;;7.09;100.00
17855;BME280;9053;53.358;6.382;2023-11-18T08:51:11;102022.47;;;7.13;100.00
17855;BME280;9053;53.358;6.382;2023-11-18T08:53:43;102012.22;;;7.16;100.00
17855;BME280;9053;53.358;6.382;2023-11-18T08:56:14;102014.22;;;7.20;100.00
17855;BME280;9053;53.358;6.382;2023-11-18T08:58:47;102013.19;;;7.18;100.00
17855;BME280;9053;53.358;6.382;2023-11-18T09:01:21;102011.41;;;7.17;100.00
17855;BME280;9053;53.358;6.382;2023-11-18T09:03:55;102014.22;;;7.20;100.00
17855;BME280;9053;53.358;6.382;2023-11-18T09:06:28;102004.75;;;7.22;100.00
17855;BME280;9053;53.358;6.382;2023-11-18T09:09:00;102000.66;;;7.26;100.00
17855;BME280;9053;53.358;6.382;2023-11-18T09:11:36;102001.56;;;7.26;100.00
17855;BME280;9053;53.358;6.382;2023-11-18T09:14:08;101994.91;;;7.31;100.00
17855;BME280;9053;53.358;6.382;2023-11-18T09:16:41;102001.75;;;7.29;100.00
17855;BME280;9053;53.358;6.382;2023-11-18T09:19:11;101996.72;;;7.32;100.00
17855;BME280;9053;53.358;6.382;2023-11-18T09:21:39;102001.34;;;7.36;100.00
17855;BME280;9053;53.358;6.382;2023-11-18T09:24:09;102009.38;;;7.40;100.00
17855;BME280;9053;53.358;6.382;2023-11-18T09:26:41;102014.03;;;7.44;100.00
17855;BME280;9053;53.358;6.382;2023-11-18T09:29:14;102011.59;;;7.47;100.00
17855;BME280;9053;53.358;6.382;2023-11-18T09:31:48;102004.06;;;7.51;100.00
17855;BME280;9053;53.358;6.382;2023-11-18T09:34:19;102000.63;;;7.52;100.00
17855;BME280;9053;53.358;6.382;2023-11-18T09:36:54;101994.59;;;7.53;100.00
17855;BME280;9053;53.358;6.382;2023-11-18T09:39:25;101985.94;;;7.54;100.00
17855;BME280;9053;53.358;6.382;2023-11-18T09:42:12;101995.78;;;7.58;100.00
17855;BME280;9053;53.358;6.382;2023-11-18T09:44:46;101982.72;;;7.58;100.00
17855;BME280;9053;53.358;6.382;2023-11-18T09:47:21;101980.34;;;7.63;100.00
17855;BME280;9053;53.358;6.382;2023-11-18T09:49:56;101968.47;;;7.68;100.00
17855;BME280;9053;53.358;6.382;2023-11-18T09:52:31;101956.91;;;7.65;100.00
17855;BME280;9053;53.358;6.382;2023-11-18T09:55:07;101952.56;;;7.65;100.00
17855;BME280;9053;53.358;6.382;2023-11-18T09:57:44;101958.81;;;7.67;100.00
17855;BME280;9053;53.358;6.382;2023-11-18T10:00:26;101953.47;;;7.66;100.00
17855;BME280;9053;53.358;6.382;2023-11-18T10:03:03;101954.41;;;7.66;100.00
17855;BME280;9053;53.358;6.382;2023-11-18T10:05:36;101952.69;;;7.67;100.00
17855;BME280;9053;53.358;6.382;2023-11-18T10:08:06;101956.38;;;7.70;100.00
17855;BME280;9053;53.358;6.382;2023-11-18T10:10:36;101952.16;;;7.72;100.00
17855;BME280;9053;53.358;6.382;2023-11-18T10:13:12;101961.00;;;7.74;100.00
17855;BME280;9053;53.358;6.382;2023-11-18T10:15:50;101947.50;;;7.82;100.00
17855;BME280;9053;53.358;6.382;2023-11-18T10:18:24;101939.34;;;7.77;100.00
17855;BME280;9053;53.358;6.382;2023-11-18T10:20:56;101932.38;;;7.77;100.00
17855;BME280;9053;53.358;6.382;2023-11-18T10:23:27;101925.84;;;7.71;100.00
17855;BME280;9053;53.358;6.382;2023-11-18T10:26:00;101919.13;;;7.74;100.00
17855;BME280;9053;53.358;6.382;2023-11-18T10:28:32;101915.66;;;7.75;100.00
17855;BME280;9053;53.358;6.382;2023-11-18T10:31:07;101912.16;;;7.75;100.00
17855;BME280;9053;53.358;6.382;2023-11-18T10:33:41;101913.16;;;7.77;100.00
17855;BME280;9053;53.358;6.382;2023-11-18T10:36:18;101901.69;;;7.75;100.00
17855;BME280;9053;53.358;6.382;2023-11-18T10:38:50;101901.78;;;7.76;100.00
17855;BME280;9053;53.358;6.382;2023-11-18T10:41:23;101901.78;;;7.76;100.00
17855;BME280;9053;53.358;6.382;2023-11-18T10:44:05;101901.78;;;7.76;100.00
17855;BME280;9053;53.358;6.382;2023-11-18T10:46:51;101902.56;;;7.75;100.00
17855;BME280;9053;53.358;6.382;2023-11-18T10:49:29;101899.78;;;7.72;100.00
17855;BME280;9053;53.358;6.382;2023-11-18T10:52:05;101884.78;;;7.70;100.00
17855;BME280;9053;53.358;6.382;2023-11-18T10:54:36;101886.09;;;7.63;100.00
17855;BME280;9053;53.358;6.382;2023-11-18T10:57:10;101877.16;;;7.59;100.00
17855;BME280;9053;53.358;6.382;2023-11-18T11:00:01;101870.22;;;7.60;100.00
17855;BME280;9053;53.358;6.382;2023-11-18T11:02:41;101868.59;;;7.62;100.00
17855;BME280;9053;53.358;6.382;2023-11-18T11:05:27;101859.13;;;7.64;100.00
17855;BME280;9053;53.358;6.382;2023-11-18T11:08:01;101852.16;;;7.65;100.00
17855;BME280;9053;53.358;6.382;2023-11-18T11:10:32;101840.88;;;7.66;100.00
17855;BME280;9053;53.358;6.382;2023-11-18T11:13:04;101834.66;;;7.64;100.00
17855;BME280;9053;53.358;6.382;2023-11-18T11:15:41;101834.75;;;7.65;100.00
17855;BME280;9053;53.358;6.382;2023-11-18T11:18:26;101833.75;;;7.63;100.00
17855;BME280;9053;53.358;6.382;2023-11-18T11:21:07;101826.81;;;7.64;100.00
17855;BME280;9053;53.358;6.382;2023-11-18T11:23:49;101813.72;;;7.64;100.00
17855;BME280;9053;53.358;6.382;2023-11-18T11:26:33;101823.25;;;7.63;100.00
17855;BME280;9053;53.358;6.382;2023-11-18T11:29:22;101819.03;;;7.65;100.00
17855;BME280;9053;53.358;6.382;2023-11-18T11:32:06;101816.53;;;7.67;100.00
17855;BME280;9053;53.358;6.382;2023-11-18T11:34:50;101809.47;;;7.66;100.00
17855;BME280;9053;53.358;6.382;2023-11-18T11:37:27;101799.81;;;7.65;100.00
17855;BME280;9053;53.358;6.382;2023-11-18T11:40:02;101798.09;;;7.65;100.00
17855;BME280;9053;53.358;6.382;2023-11-18T11:42:38;101803.44;;;7.67;100.00
17855;BME280;9053;53.358;6.382;2023-11-18T11:45:09;101808.56;;;7.65;100.00
17855;BME280;9053;53.358;6.382;2023-11-18T11:47:48;101810.56;;;7.69;100.00
17855;BME280;9053;53.358;6.382;2023-11-18T11:50:27;101796.47;;;7.67;100.00
17855;BME280;9053;53.358;6.382;2023-11-18T11:53:04;101808.03;;;7.71;100.00
17855;BME280;9053;53.358;6.382;2023-11-18T11:55:45;101809.84;;;7.72;100.00
17855;BME280;9053;53.358;6.382;2023-11-18T11:58:29;101791.81;;;7.76;100.00
17855;BME280;9053;53.358;6.382;2023-11-18T12:01:01;101782.28;;;7.78;100.00
17855;BME280;9053;53.358;6.382;2023-11-18T12:03:39;101780.59;;;7.79;100.00
17855;BME280;9053;53.358;6.382;2023-11-18T12:06:12;101764.97;;;7.80;100.00
17855;BME280;9053;53.358;6.382;2023-11-18T12:08:46;101770.13;;;7.79;100.00
17855;BME280;9053;53.358;6.382;2023-11-18T12:11:18;101773.47;;;7.76;100.00
17855;BME280;9053;53.358;6.382;2023-11-18T12:14:10;101780.41;;;7.76;100.00
17855;BME280;9053;53.358;6.382;2023-11-18T12:17:00;101773.53;;;7.78;100.00
17855;BME280;9053;53.358;6.382;2023-11-18T12:19:36;101777.88;;;7.77;100.00
17855;BME280;9053;53.358;6.382;2023-11-18T12:22:12;101765.78;;;7.79;100.00
17855;BME280;9053;53.358;6.382;2023-11-18T12:28:09;101756.22;;;7.80;100.00
17855;BME280;9053;53.358;6.382;2023-11-18T12:30:43;101743.00;;;7.78;100.00
17855;BME280;9053;53.358;6.382;2023-11-18T12:33:23;101730.91;;;7.80;100.00
17855;BME280;9053;53.358;6.382;2023-11-18T12:39:52;101717.94;;;7.82;100.00
17855;BME280;9053;53.358;6.382;2023-11-18T12:42:54;101704.00;;;7.83;100.00
17855;BME280;9053;53.358;6.382;2023-11-18T12:45:56;101692.00;;;7.87;100.00
17855;BME280;9053;53.358;6.382;2023-11-18T12:48:36;101688.28;;;7.83;100.00
17855;BME280;9053;53.358;6.382;2023-11-18T12:51:07;101684.78;;;7.83;100.00
17855;BME280;9053;53.358;6.382;2023-11-18T12:53:49;101689.19;;;7.84;100.00
17855;BME280;9053;53.358;6.382;2023-11-18T12:56:23;101687.56;;;7.86;100.00
17855;BME280;9053;53.358;6.382;2023-11-18T12:58:55;101699.66;;;7.84;100.00
17855;BME280;9053;53.358;6.382;2023-11-18T13:01:26;101705.72;;;7.83;100.00
17855;BME280;9053;53.358;6.382;2023-11-18T13:03:57;101701.50;;;7.85;100.00
17855;BME280;9053;53.358;6.382;2023-11-18T13:06:29;101698.97;;;7.86;100.00
17855;BME280;9053;53.358;6.382;2023-11-18T13:09:00;101692.00;;;7.87;100.00
17855;BME280;9053;53.358;6.382;2023-11-18T13:11:39;101684.88;;;7.84;100.00
17855;BME280;9053;53.358;6.382;2023-11-18T13:14:09;101675.31;;;7.85;100.00
17855;BME280;9053;53.358;6.382;2023-11-18T13:16:39;101669.22;;;7.86;100.00
17855;BME280;9053;53.358;6.382;2023-11-18T13:19:23;101666.81;;;7.89;100.00
17855;BME280;9053;53.358;6.382;2023-11-18T13:21:58;101645.03;;;7.90;100.00
17855;BME280;9053;53.358;6.382;2023-11-18T13:24:30;101656.25;;;7.87;100.00
17855;BME280;9053;53.358;6.382;2023-11-18T13:27:08;101650.91;;;7.86;100.00
17855;BME280;9053;53.358;6.382;2023-11-18T13:29:44;101625.38;;;7.82;100.00
17855;BME280;9053;53.358;6.382;2023-11-18T13:32:16;101631.78;;;7.87;100.00
17855;BME280;9053;53.358;6.382;2023-11-18T13:34:50;101633.50;;;7.86;100.00
17855;BME280;9053;53.358;6.382;2023-11-18T13:37:21;101634.91;;;7.81;100.00
17855;BME280;9053;53.358;6.382;2023-11-18T13:39:54;101609.56;;;7.80;100.00